Time;durP1;ratioP1;P1;durP2;ratioP2;P2;SDS_P1;SDS_P2;PMS_P1;PMS_P2;Temp;Humidity;BMP_temperature;BMP_pressure;BME280_temperature;BME280_humidity;BME280_pressure;Samples;Min_cycle;Max_cycle;Signal;HPM_P1;HPM_P2
2022/08/25 00:01:25;;;;;;;9.80;3.40;;;21.00;1.00;;;;;;5081202;28;20752;-55
2022/08/25 00:03:51;;;;;;;7.80;3.58;;;20.90;1.00;;;;;;5079699;28;20375;-55
2022/08/25 00:06:18;;;;;;;8.00;3.30;;;20.80;99.90;;;;;;5078868;28;20887;-57
2022/08/25 00:08:44;;;;;;;8.27;3.65;;;20.70;1.00;;;;;;5080582;28;20404;-56
2022/08/25 00:11:16;;;;;;;9.83;3.80;;;20.50;99.90;;;;;;5061474;28;20473;-55
2022/08/25 00:13:44;;;;;;;9.70;4.00;;;20.50;1.00;;;;;;5079078;28;20523;-56
2022/08/25 00:16:11;;;;;;;9.82;3.83;;;20.60;99.90;;;;;;5062832;28;20445;-55
2022/08/25 00:18:43;;;;;;;8.48;3.70;;;20.70;1.00;;;;;;5082116;28;20794;-56
2022/08/25 00:21:09;;;;;;;9.45;3.60;;;20.80;99.90;;;;;;5082654;28;20388;-55
2022/08/25 00:23:35;;;;;;;8.20;3.90;;;20.90;99.90;;;;;;5080586;28;20388;-56
2022/08/25 00:26:01;;;;;;;9.33;3.80;;;21.00;99.90;;;;;;5080312;28;20375;-56
2022/08/25 00:28:29;;;;;;;7.38;3.55;;;21.00;99.90;;;;;;5079203;28;20598;-56
2022/08/25 00:30:54;;;;;;;8.30;3.60;;;21.00;99.90;;;;;;5080419;28;20389;-56
2022/08/25 00:33:20;;;;;;;9.02;3.60;;;21.00;99.90;;;;;;5079203;28;20378;-55
2022/08/25 00:35:46;;;;;;;9.25;3.72;;;20.90;99.90;;;;;;5078698;28;20450;-56
2022/08/25 00:38:12;;;;;;;7.57;3.60;;;20.90;99.90;;;;;;5080992;28;20403;-56
2022/08/25 00:40:39;;;;;;;8.45;3.97;;;20.90;99.90;;;;;;5068931;28;20397;-56
2022/08/25 00:43:06;;;;;;;9.40;4.00;;;20.80;99.90;;;;;;5085073;28;20378;-56
2022/08/25 00:45:33;;;;;;;8.70;3.70;;;20.70;99.90;;;;;;5089211;28;20821;-56
2022/08/25 00:48:00;;;;;;;9.98;4.40;;;20.60;6.80;;;;;;5089367;28;20402;-56
2022/08/25 00:50:28;;;;;;;8.88;4.00;;;20.60;99.90;;;;;;5088949;28;20448;-56
2022/08/25 00:52:57;;;;;;;7.90;3.72;;;20.70;20.90;;;;;;5089761;28;20878;-55
2022/08/25 00:55:28;;;;;;;8.40;4.32;;;20.60;1.60;;;;;;5083901;28;20425;-55
2022/08/25 00:58:06;;;;;;;9.27;4.40;;;20.60;99.90;;;;;;5052139;28;20434;-56
2022/08/25 01:00:42;;;;;;;7.75;3.85;;;20.60;1.00;;;;;;5085773;28;20900;-56
2022/08/25 01:03:08;;;;;;;8.25;3.80;;;20.60;66.10;;;;;;5084849;28;20406;-56
2022/08/25 01:05:34;;;;;;;8.20;3.60;;;20.50;99.90;;;;;;5088451;28;20390;-56
2022/08/25 01:08:05;;;;;;;8.15;3.70;;;20.50;99.90;;;;;;5089502;28;20446;-56
2022/08/25 01:10:33;;;;;;;8.43;3.60;;;20.50;1.00;;;;;;5088126;28;20928;-56
2022/08/25 01:13:05;;;;;;;8.85;3.90;;;20.50;1.00;;;;;;5089078;28;20386;-56
2022/08/25 01:15:33;;;;;;;7.80;3.67;;;20.50;99.90;;;;;;5088615;28;20900;-56
2022/08/25 01:17:58;;;;;;;9.57;4.65;;;20.50;99.90;;;;;;5089160;28;20881;-56
2022/08/25 01:20:27;;;;;;;8.70;3.67;;;20.50;99.90;;;;;;5089117;28;20381;-56
2022/08/25 01:22:54;;;;;;;8.53;4.00;;;20.50;99.90;;;;;;5088767;28;20482;-55
2022/08/25 01:26:03;;;;;;;8.65;3.80;;;20.50;99.90;;;;;;5088607;28;20848;-55
2022/08/25 01:28:29;;;;;;;8.80;3.83;;;20.50;1.00;;;;;;5004785;28;20850;-56
2022/08/25 01:30:55;;;;;;;9.40;3.90;;;20.40;1.00;;;;;;5006382;28;20515;-55
2022/08/25 01:33:21;;;;;;;7.60;3.78;;;20.30;99.90;;;;;;5043334;28;20608;-56
2022/08/25 01:35:47;;;;;;;8.18;3.95;;;20.40;99.90;;;;;;5087172;28;20393;-55
2022/08/25 01:38:13;;;;;;;8.33;3.50;;;20.40;99.90;;;;;;5088124;28;20390;-55
2022/08/25 01:40:39;;;;;;;9.02;4.13;;;20.40;1.00;;;;;;5087116;28;20446;-56
2022/08/25 01:43:14;;;;;;;9.40;3.67;;;20.50;99.90;;;;;;5087510;28;20806;-56
2022/08/25 01:45:43;;;;;;;9.30;3.90;;;20.50;99.90;;;;;;5085865;28;20400;-53
2022/08/25 01:48:10;;;;;;;8.60;4.10;;;20.50;99.90;;;;;;5088287;28;20458;-54
2022/08/25 01:50:36;;;;;;;10.10;4.60;;;20.50;99.90;;;;;;5086980;28;20565;-53
2022/08/25 01:53:07;;;;;;;8.88;4.32;;;20.50;99.90;;;;;;5088263;28;20470;-55
2022/08/25 01:55:50;;;;;;;7.90;3.97;;;20.50;99.90;;;;;;5087871;28;20876;-56
2022/08/25 01:58:25;;;;;;;9.88;4.00;;;20.50;99.90;;;;;;5088147;28;20417;-56
2022/08/25 02:00:55;;;;;;;9.65;4.55;;;20.40;1.00;;;;;;5088024;28;20393;-55
2022/08/25 02:03:25;;;;;;;8.30;3.90;;;20.30;99.90;;;;;;5069997;28;20923;-56
2022/08/25 02:05:52;;;;;;;8.30;4.03;;;20.30;99.90;;;;;;5087998;28;20847;-56
2022/08/25 02:08:18;;;;;;;10.10;4.00;;;20.20;1.00;;;;;;5087797;28;20926;-56
2022/08/25 02:10:45;;;;;;;9.07;3.70;;;20.10;1.00;;;;;;5087454;28;20374;-56
2022/08/25 02:13:11;;;;;;;8.53;3.60;;;20.00;1.00;;;;;;5069823;28;20390;-56
2022/08/25 02:15:53;;;;;;;10.07;3.73;;;19.90;1.00;;;;;;5087673;28;20371;-55
2022/08/25 02:18:19;;;;;;;8.57;4.00;;;19.80;1.00;;;;;;5088170;28;20468;-56
2022/08/25 02:20:45;;;;;;;8.70;3.70;;;19.70;68.80;;;;;;5087457;28;20470;-55
2022/08/25 02:23:11;;;;;;;10.10;4.30;;;19.50;99.90;;;;;;5087832;28;20477;-55
2022/08/25 02:25:39;;;;;;;8.68;3.88;;;19.40;99.90;;;;;;5087016;28;20512;-56
2022/08/25 02:28:07;;;;;;;8.23;4.05;;;19.20;99.90;;;;;;5087472;28;20453;-55
2022/08/25 02:30:34;;;;;;;9.23;4.10;;;19.10;99.90;;;;;;5087208;28;20466;-55
2022/08/25 02:32:59;;;;;;;9.20;3.60;;;19.00;99.90;;;;;;5087971;28;20404;-55
2022/08/25 02:35:25;;;;;;;10.37;4.83;;;19.00;1.00;;;;;;5087636;28;20812;-55
2022/08/25 02:37:52;;;;;;;10.00;4.30;;;18.90;1.00;;;;;;5081843;28;20530;-55
2022/08/25 02:40:20;;;;;;;10.05;4.35;;;18.80;1.00;;;;;;5067537;28;20462;-55
2022/08/25 02:42:46;;;;;;;12.40;4.80;;;18.80;1.00;;;;;;5066605;28;20498;-56
2022/08/25 02:45:12;;;;;;;10.98;4.40;;;18.80;1.00;;;;;;5070800;28;20490;-55
2022/08/25 02:47:39;;;;;;;10.52;4.68;;;18.70;1.00;;;;;;5090997;28;20473;-53
2022/08/25 02:50:06;;;;;;;9.85;4.40;;;18.80;1.00;;;;;;5092477;28;20866;-53
2022/08/25 02:52:31;;;;;;;10.07;4.53;;;18.70;1.00;;;;;;5091100;28;20515;-53
2022/08/25 02:54:57;;;;;;;9.63;4.65;;;18.80;1.00;;;;;;5092708;28;20861;-55
2022/08/25 02:57:23;;;;;;;8.90;4.17;;;18.80;1.00;;;;;;5091875;28;20398;-55
2022/08/25 02:59:50;;;;;;;10.00;4.35;;;18.80;1.00;;;;;;5091399;28;20468;-55
2022/08/25 03:02:16;;;;;;;8.15;4.28;;;18.80;1.00;;;;;;5092317;28;20397;-59
2022/08/25 03:04:42;;;;;;;8.45;4.10;;;18.80;1.00;;;;;;5091785;28;20495;-56
2022/08/25 03:07:10;;;;;;;10.00;4.47;;;19.00;1.00;;;;;;5091542;28;20386;-57
2022/08/25 03:09:36;;;;;;;10.88;4.78;;;19.00;1.00;;;;;;5091182;28;20449;-54
2022/08/25 03:12:03;;;;;;;12.30;4.80;;;19.00;1.00;;;;;;5091331;28;20408;-54
2022/08/25 03:14:29;;;;;;;10.48;4.43;;;19.00;99.90;;;;;;5091313;28;20843;-54
2022/08/25 03:16:55;;;;;;;10.50;4.80;;;18.70;1.00;;;;;;5090974;28;20385;-54
2022/08/25 03:19:20;;;;;;;9.80;4.90;;;18.70;1.00;;;;;;5091362;28;20405;-53
2022/08/25 03:21:47;;;;;;;10.07;4.60;;;18.60;1.00;;;;;;5090316;28;20879;-52
2022/08/25 03:24:13;;;;;;;13.70;4.70;;;18.60;1.00;;;;;;5091382;28;20409;-55
2022/08/25 03:26:54;;;;;;;9.68;4.68;;;18.60;1.00;;;;;;5090383;28;20832;-55
2022/08/25 03:29:28;;;;;;;9.60;4.80;;;18.60;1.00;;;;;;5072978;28;20771;-55
2022/08/25 03:31:56;;;;;;;9.60;5.10;;;18.60;1.00;;;;;;5090372;28;20382;-55
2022/08/25 03:34:23;;;;;;;9.82;4.47;;;18.60;1.00;;;;;;5091589;28;20863;-55
2022/08/25 03:36:51;;;;;;;9.50;4.40;;;18.50;1.00;;;;;;5090289;28;20370;-55
2022/08/25 03:39:19;;;;;;;10.02;4.40;;;18.40;1.00;;;;;;5090781;28;20378;-55
2022/08/25 03:41:45;;;;;;;8.70;4.18;;;18.40;1.00;;;;;;5089771;28;20390;-53
2022/08/25 03:44:12;;;;;;;10.18;4.30;;;18.30;1.00;;;;;;5090836;28;20735;-55
2022/08/25 03:46:50;;;;;;;10.15;4.47;;;18.10;1.00;;;;;;5090390;28;20802;-53
2022/08/25 03:49:21;;;;;;;9.20;3.97;;;18.00;1.00;;;;;;5090517;28;20487;-54
2022/08/25 03:51:49;;;;;;;9.75;4.55;;;17.90;1.00;;;;;;5090749;28;20394;-56
2022/08/25 03:54:18;;;;;;;11.20;4.70;;;17.90;1.00;;;;;;5090862;28;20457;-56
2022/08/25 03:56:44;;;;;;;9.70;4.95;;;17.90;1.00;;;;;;5089101;28;20390;-57
2022/08/25 03:59:10;;;;;;;9.53;4.23;;;17.90;1.00;;;;;;5090594;28;20400;-55
2022/08/25 04:01:37;;;;;;;11.05;5.00;;;17.90;1.00;;;;;;5090238;28;20397;-55
2022/08/25 04:04:04;;;;;;;10.93;4.95;;;17.90;1.00;;;;;;5090516;28;20413;-55
2022/08/25 04:06:30;;;;;;;9.70;5.00;;;17.90;1.00;;;;;;5090113;28;20378;-56
2022/08/25 04:08:57;;;;;;;10.57;4.90;;;18.00;1.00;;;;;;5089821;28;20410;-55
2022/08/25 04:11:24;;;;;;;9.90;5.00;;;18.10;1.00;;;;;;5089272;28;20474;-55
2022/08/25 04:13:50;;;;;;;9.48;5.10;;;18.10;1.00;;;;;;5089415;28;20421;-54
2022/08/25 04:16:19;;;;;;;10.30;4.90;;;18.10;1.00;;;;;;5090574;28;20372;-51
2022/08/25 04:18:48;;;;;;;10.77;4.38;;;18.20;1.00;;;;;;5089489;28;20416;-52
2022/08/25 04:21:14;;;;;;;12.82;5.60;;;18.20;1.00;;;;;;5090384;28;20394;-55
2022/08/25 04:23:41;;;;;;;10.60;5.00;;;18.30;1.00;;;;;;5089636;28;20393;-55
2022/08/25 04:26:12;;;;;;;10.90;5.07;;;18.30;1.00;;;;;;5089983;28;20469;-55
2022/08/25 04:28:39;;;;;;;15.80;6.47;;;18.30;1.00;;;;;;5089254;28;20421;-55
2022/08/25 04:31:06;;;;;;;11.00;5.63;;;18.30;1.00;;;;;;5090514;28;20715;-55
2022/08/25 04:33:33;;;;;;;10.55;5.35;;;18.20;1.00;;;;;;5089404;28;20413;-55
2022/08/25 04:35:58;;;;;;;9.52;4.75;;;18.10;1.00;;;;;;5089343;28;20739;-53
2022/08/25 04:38:24;;;;;;;10.85;5.35;;;18.10;1.00;;;;;;5089943;28;20382;-51
2022/08/25 04:41:02;;;;;;;10.35;5.20;;;18.00;1.00;;;;;;5088589;28;20397;-55
2022/08/25 04:43:30;;;;;;;10.52;5.20;;;18.10;1.00;;;;;;5089406;28;20488;-55
2022/08/25 04:45:56;;;;;;;10.60;4.73;;;18.00;1.00;;;;;;5089334;28;20398;-54
2022/08/25 04:48:23;;;;;;;10.38;4.88;;;18.00;1.00;;;;;;5089763;28;20534;-54
2022/08/25 04:50:48;;;;;;;10.73;5.50;;;18.00;1.00;;;;;;5088586;28;20387;-54
2022/08/25 04:53:14;;;;;;;10.32;5.22;;;17.90;1.00;;;;;;5089821;28;20457;-54
2022/08/25 04:55:45;;;;;;;10.33;5.10;;;17.90;1.00;;;;;;5088780;28;20394;-54
2022/08/25 04:58:12;;;;;;;10.05;4.70;;;17.90;1.00;;;;;;5089573;28;20882;-54
2022/08/25 05:00:38;;;;;;;12.02;4.90;;;17.90;1.00;;;;;;5088831;28;20374;-54
2022/08/25 05:03:04;;;;;;;12.85;5.45;;;17.80;1.00;;;;;;5089258;28;20409;-54
2022/08/25 05:05:34;;;;;;;12.70;6.22;;;17.70;1.00;;;;;;5088764;28;20398;-55
2022/08/25 05:08:00;;;;;;;11.80;5.20;;;17.80;1.00;;;;;;5087934;28;20406;-54
2022/08/25 05:10:26;;;;;;;11.93;5.68;;;17.80;1.00;;;;;;5089188;28;20493;-55
2022/08/25 05:12:52;;;;;;;11.60;5.50;;;17.80;1.00;;;;;;5088298;28;20420;-54
2022/08/25 05:18:02;;;;;;;13.82;6.10;;;18.00;1.00;;;;;;5088958;28;20381;-54
2022/08/25 05:20:29;;;;;;;10.83;5.40;;;18.10;1.00;;;;;;5088710;28;20476;-54
2022/08/25 05:22:56;;;;;;;12.47;5.90;;;18.20;1.00;;;;;;5088230;28;20444;-54
2022/08/25 05:25:21;;;;;;;12.18;6.13;;;18.30;1.00;;;;;;5088799;28;21081;-54
2022/08/25 05:27:47;;;;;;;13.85;5.63;;;18.40;1.00;;;;;;5086981;28;20918;-54
2022/08/25 05:30:13;;;;;;;10.70;5.60;;;18.50;1.00;;;;;;5088946;28;20416;-54
2022/08/25 05:32:38;;;;;;;12.10;5.83;;;18.70;1.00;;;;;;5087908;28;20433;-55
2022/08/25 05:35:06;;;;;;;11.85;6.10;;;18.80;1.00;;;;;;5088597;28;20452;-54
2022/08/25 05:37:32;;;;;;;11.40;6.07;;;18.80;1.00;;;;;;5087790;28;20487;-55
2022/08/25 05:39:57;;;;;;;15.23;6.63;;;18.90;1.00;;;;;;5088021;28;20927;-54
2022/08/25 05:42:24;;;;;;;13.80;7.13;;;19.00;1.00;;;;;;5088796;28;20390;-54
2022/08/25 05:44:49;;;;;;;12.02;6.35;;;19.10;1.00;;;;;;5087438;28;20485;-54
2022/08/25 05:47:15;;;;;;;12.37;6.20;;;19.40;1.00;;;;;;5088153;28;20481;-54
2022/08/25 05:49:41;;;;;;;15.00;6.85;;;19.70;99.90;;;;;;5087825;28;20433;-55
2022/08/25 05:52:07;;;;;;;13.53;7.30;;;19.90;99.90;;;;;;5088614;28;20394;-54
2022/08/25 05:54:32;;;;;;;13.02;5.80;;;20.10;99.90;;;;;;5087624;28;20397;-56
2022/08/25 05:56:59;;;;;;;13.70;6.65;;;20.60;99.90;;;;;;5088125;28;20409;-55
2022/08/25 05:59:25;;;;;;;11.10;6.30;;;;;;;;;;5088397;28;20485;-55
2022/08/25 06:04:35;;;;;;;12.38;6.70;;;25.50;99.90;;;;;;5081341;28;20413;-56
2022/08/25 06:07:01;;;;;;;11.77;6.37;;;27.70;1.00;;;;;;5077198;28;20745;-55
2022/08/25 06:09:26;;;;;;;11.07;5.47;;;28.80;99.90;;;;;;5087325;28;20732;-55
2022/08/25 06:11:52;;;;;;;11.53;5.90;;;29.70;99.90;;;;;;5087406;28;20427;-56
2022/08/25 06:14:19;;;;;;;11.10;6.57;;;30.20;99.90;;;;;;5077786;28;20427;-56
2022/08/25 06:16:47;;;;;;;12.07;6.60;;;30.70;99.90;;;;;;5078744;28;20409;-55
2022/08/25 06:19:13;;;;;;;13.97;7.00;;;30.70;99.90;;;;;;5082580;28;20462;-55
2022/08/25 06:21:39;;;;;;;12.05;6.90;;;31.20;99.90;;;;;;5080285;28;20397;-55
2022/08/25 06:24:06;;;;;;;12.60;8.00;;;32.10;99.90;;;;;;5087811;28;20382;-55
2022/08/25 06:26:32;;;;;;;11.87;7.00;;;32.40;99.90;;;;;;5087385;28;20461;-56
2022/08/25 06:28:58;;;;;;;12.80;7.43;;;32.90;99.90;;;;;;5086686;28;20512;-55
2022/08/25 06:31:25;;;;;;;11.67;7.73;;;33.70;99.90;;;;;;5086839;28;21320;-56
2022/08/25 06:33:51;;;;;;;11.27;8.27;;;34.40;99.90;;;;;;5086294;28;20409;-55
2022/08/25 06:36:18;;;;;;;11.07;7.97;;;35.10;99.90;;;;;;5087269;28;20479;-56
2022/08/25 06:38:44;;;;;;;10.70;7.10;;;35.70;99.90;;;;;;5068191;28;20397;-56
2022/08/25 06:41:11;;;;;;;11.27;7.07;;;35.80;99.90;;;;;;5086633;28;20478;-56
2022/08/25 06:43:39;;;;;;;11.50;7.57;;;35.50;99.90;;;;;;5086942;28;20467;-56
2022/08/25 06:46:13;;;;;;;10.63;7.32;;;36.00;99.90;;;;;;5087614;28;20748;-56
2022/08/25 06:48:40;;;;;;;12.15;8.40;;;35.90;99.90;;;;;;5086281;28;20432;-56
2022/08/25 06:51:11;;;;;;;10.32;7.63;;;35.60;99.90;;;;;;5087612;28;20747;-56
2022/08/25 06:53:37;;;;;;;11.40;6.20;;;35.40;99.90;;;;;;5086672;28;20394;-55
2022/08/25 06:56:04;;;;;;;12.77;6.87;;;35.40;99.90;;;;;;5087430;28;20469;-56
2022/08/25 06:58:30;;;;;;;11.23;7.70;;;35.30;99.90;;;;;;5077153;28;20486;-55
2022/08/25 07:00:56;;;;;;;10.30;6.18;;;35.10;99.90;;;;;;5084448;28;20398;-56
2022/08/25 07:03:22;;;;;;;9.45;6.07;;;35.10;99.90;;;;;;5082374;28;20434;-57
2022/08/25 07:05:52;;;;;;;11.32;6.13;;;35.00;99.90;;;;;;5078227;28;20425;-55
2022/08/25 07:08:18;;;;;;;10.23;6.53;;;35.20;99.90;;;;;;5071590;28;20518;-56
2022/08/25 07:10:44;;;;;;;10.15;5.55;;;35.90;99.90;;;;;;5080132;28;20402;-57
2022/08/25 07:13:09;;;;;;;10.57;5.80;;;35.80;99.90;;;;;;5086851;28;20393;-56
2022/08/25 07:15:39;;;;;;;12.50;5.93;;;36.10;99.90;;;;;;5086202;28;20480;-56
2022/08/25 07:18:06;;;;;;;10.10;6.20;;;35.70;99.90;;;;;;5075673;28;20490;-56
2022/08/25 07:20:36;;;;;;;9.85;5.65;;;35.90;99.90;;;;;;5075401;28;20450;-56
2022/08/25 07:23:02;;;;;;;9.93;5.60;;;35.70;99.90;;;;;;5070958;28;20439;-56
2022/08/25 07:25:28;;;;;;;9.68;6.13;;;35.60;99.90;;;;;;5071667;28;20390;-56
2022/08/25 07:27:54;;;;;;;10.00;5.47;;;36.90;1.00;;;;;;5075316;28;20421;-57
2022/08/25 07:30:19;;;;;;;11.60;5.80;;;37.80;99.90;;;;;;5083280;28;20398;-56
2022/08/25 07:32:45;;;;;;;10.23;5.88;;;37.90;99.90;;;;;;5087760;28;20879;-56
2022/08/25 07:35:14;;;;;;;10.03;4.80;;;37.70;99.90;;;;;;5083815;28;20470;-55
2022/08/25 07:37:42;;;;;;;10.30;5.60;;;37.50;99.90;;;;;;5089493;28;20440;-56
2022/08/25 07:40:11;;;;;;;10.20;5.47;;;37.70;99.90;;;;;;5084885;28;20414;-56
2022/08/25 07:42:36;;;;;;;10.57;7.70;;;37.50;1.00;;;;;;5090097;28;20394;-56
2022/08/25 07:45:04;;;;;;;10.27;6.90;;;36.70;1.00;;;;;;5090405;28;20389;-56
2022/08/25 07:47:30;;;;;;;10.65;7.70;;;36.40;1.00;;;;;;5085877;28;20524;-57
2022/08/25 07:49:56;;;;;;;10.30;6.10;;;36.30;1.00;;;;;;5089663;28;20421;-56
2022/08/25 07:52:22;;;;;;;11.10;6.30;;;36.70;1.00;;;;;;5090156;28;20408;-57
2022/08/25 07:54:47;;;;;;;10.10;6.40;;;36.20;1.00;;;;;;5089908;28;20420;-56
2022/08/25 07:57:13;;;;;;;9.40;6.33;;;35.80;1.00;;;;;;5090045;28;20429;-55
2022/08/25 07:59:40;;;;;;;9.47;6.70;;;36.10;1.00;;;;;;5089287;28;20755;-55
2022/08/25 08:02:09;;;;;;;9.45;6.00;;;36.10;1.00;;;;;;5090202;28;20468;-55
2022/08/25 08:04:36;;;;;;;9.90;6.68;;;;;;;;;;5089056;28;20390;-55
2022/08/25 08:07:01;;;;;;;12.35;6.75;;;35.70;99.90;;;;;;5084324;28;20367;-55
2022/08/25 08:09:29;;;;;;;9.60;6.50;;;35.30;99.90;;;;;;5090093;28;20414;-55
2022/08/25 08:11:56;;;;;;;10.00;7.20;;;35.20;99.90;;;;;;5082289;28;20386;-55
2022/08/25 08:14:22;;;;;;;9.40;6.15;;;35.60;1.00;;;;;;5089666;28;20397;-56
2022/08/25 08:16:48;;;;;;;9.77;5.97;;;36.20;1.00;;;;;;5088988;28;20390;-56
2022/08/25 08:19:14;;;;;;;10.70;7.20;;;37.30;1.00;;;;;;5089152;28;20435;-56
2022/08/25 08:21:40;;;;;;;9.40;6.00;;;37.40;1.00;;;;;;5082320;28;20390;-56
2022/08/25 08:24:06;;;;;;;9.13;5.60;;;37.30;1.00;;;;;;5088908;28;20398;-56
2022/08/25 08:26:32;;;;;;;12.05;6.75;;;37.60;1.00;;;;;;5089024;28;20492;-56
2022/08/25 08:28:58;;;;;;;12.55;6.78;;;37.70;1.00;;;;;;5088269;28;20422;-56
2022/08/25 08:31:25;;;;;;;10.52;6.97;;;38.00;1.00;;;;;;5089471;28;20390;-56
2022/08/25 08:33:52;;;;;;;10.32;6.80;;;38.30;1.00;;;;;;5088588;28;20505;-56
2022/08/25 08:36:18;;;;;;;11.63;7.47;;;38.50;1.00;;;;;;5089547;28;20394;-56
2022/08/25 08:38:44;;;;;;;10.87;7.67;;;38.90;1.00;;;;;;5087972;28;20397;-56
2022/08/25 08:44:48;;;;;;;11.63;6.85;;;;;;;;;;5088283;28;20440;-57
2022/08/25 08:47:17;;;;;;;11.23;5.40;;;;;;;;;;5081584;28;20428;-57
2022/08/25 08:50:10;;;;;;;9.98;5.57;;;;;;;;;;5088195;28;20414;-57
2022/08/25 08:52:50;;;;;;;8.82;5.10;;;39.20;1.00;;;;;;5080784;28;20758;-57
2022/08/25 08:55:42;;;;;;;11.05;6.25;;;;;;;;;;5089334;28;20394;-56
2022/08/25 08:58:16;;;;;;;9.83;7.20;;;;;;;;;;5077586;28;20871;-57
2022/08/25 09:00:50;;;;;;;10.10;7.43;;;39.00;1.00;;;;;;5072671;28;20411;-57
2022/08/25 09:03:25;;;;;;;10.10;5.40;;;;;;;;;;5076204;28;20800;-57
2022/08/25 09:05:52;;;;;;;10.50;4.90;;;;;;;;;;5072969;28;20364;-57
2022/08/25 09:08:18;;;;;;;9.60;5.70;;;;;;;;;;5075085;28;20873;-57
2022/08/25 09:10:57;;;;;;;8.50;5.20;;;;;;;;;;5075745;28;20383;-57
2022/08/25 09:13:54;;;;;;;9.95;5.30;;;;;;;;;;5076553;28;20402;-57
2022/08/25 09:16:54;;;;;;;10.50;5.72;;;40.10;43.80;;;;;;5072046;28;20396;-57
2022/08/25 09:19:26;;;;;;;10.52;7.30;;;39.70;1.00;;;;;;5072552;28;20498;-56
2022/08/25 09:22:14;;;;;;;9.38;7.05;;;39.80;1.00;;;;;;5070138;28;20884;-56
2022/08/25 09:24:58;;;;;;;10.75;7.35;;;39.40;1.00;;;;;;5071797;28;20498;-56
2022/08/25 09:27:44;;;;;;;11.32;7.38;;;39.60;1.00;;;;;;5072506;28;20404;-56
2022/08/25 09:30:14;;;;;;;9.65;6.85;;;39.40;1.00;;;;;;5074180;28;20390;-57
2022/08/25 09:32:44;;;;;;;10.90;7.50;;;40.00;1.00;;;;;;5074008;28;20472;-57
2022/08/25 09:35:21;;;;;;;8.93;6.97;;;39.60;1.00;;;;;;5054738;28;20697;-56
2022/08/25 09:38:01;;;;;;;10.52;5.30;;;40.40;1.00;;;;;;5073165;28;20880;-57
2022/08/25 09:40:29;;;;;;;9.80;6.60;;;40.70;1.00;;;;;;5083698;28;20389;-57
2022/08/25 09:43:00;;;;;;;9.10;7.20;;;39.70;99.90;;;;;;5085556;28;20378;-56
2022/08/25 09:45:47;;;;;;;9.93;7.13;;;39.10;99.90;;;;;;5088622;28;20374;-56
2022/08/25 09:48:38;;;;;;;9.87;6.70;;;39.70;99.90;;;;;;5085537;28;20425;-56
2022/08/25 09:51:28;;;;;;;9.90;7.10;;;40.40;99.90;;;;;;5088010;28;20416;-57
2022/08/25 09:53:58;;;;;;;9.00;6.60;;;40.00;1.00;;;;;;5083335;28;20390;-57
2022/08/25 09:56:30;;;;;;;9.40;6.87;;;40.10;1.00;;;;;;5063160;28;20408;-57
2022/08/25 09:59:26;;;;;;;10.02;7.40;;;39.60;1.00;;;;;;5087751;28;20900;-56
2022/08/25 10:01:55;;;;;;;9.25;6.05;;;38.60;1.00;;;;;;5069651;28;20733;-56
2022/08/25 10:04:38;;;;;;;11.10;5.40;;;38.60;1.00;;;;;;5069846;28;20455;-57
2022/08/25 10:07:21;;;;;;;9.88;5.32;;;38.20;1.00;;;;;;5088054;28;20427;-56
2022/08/25 10:09:53;;;;;;;10.57;7.97;;;37.50;1.00;;;;;;5086485;28;20554;-57
2022/08/25 10:12:29;;;;;;;9.57;6.10;;;37.60;1.00;;;;;;5084203;28;20390;-57
2022/08/25 10:14:54;;;;;;;8.98;5.50;;;38.50;99.90;;;;;;5080849;28;20374;-56
2022/08/25 10:17:31;;;;;;;8.45;5.70;;;39.10;99.90;;;;;;5081966;28;20390;-56
2022/08/25 10:20:09;;;;;;;9.02;6.53;;;39.60;99.90;;;;;;5087403;28;20394;-57
2022/08/25 10:22:39;;;;;;;10.90;6.00;;;39.00;99.90;;;;;;5087921;28;20458;-56
2022/08/25 10:25:13;;;;;;;10.50;6.55;;;38.90;99.90;;;;;;5085359;28;20435;-57
2022/08/25 10:27:45;;;;;;;9.30;6.50;;;38.30;99.90;;;;;;5082723;28;20422;-57
2022/08/25 10:30:22;;;;;;;8.40;6.30;;;37.30;99.90;;;;;;5082361;28;20414;-57
2022/08/25 10:32:56;;;;;;;9.90;6.20;;;37.50;99.90;;;;;;5084821;28;20454;-56
2022/08/25 10:35:34;;;;;;;9.70;6.93;;;37.80;99.90;;;;;;5085307;28;20402;-57
2022/08/25 10:38:25;;;;;;;9.55;6.40;;;37.10;99.90;;;;;;5082964;28;20463;-56
2022/08/25 10:40:57;;;;;;;10.03;7.27;;;36.10;99.90;;;;;;5084103;28;20402;-56
2022/08/25 10:43:45;;;;;;;11.02;7.25;;;36.20;99.90;;;;;;5086135;28;20800;-57
2022/08/25 10:46:33;;;;;;;9.10;7.00;;;35.90;99.90;;;;;;5085214;28;20413;-56
2022/08/25 10:49:15;;;;;;;9.40;6.30;;;35.60;99.90;;;;;;5077124;28;20413;-56
2022/08/25 10:51:52;;;;;;;9.40;6.47;;;35.00;99.90;;;;;;5084537;28;20401;-55
2022/08/25 10:54:48;;;;;;;9.68;6.40;;;34.90;99.90;;;;;;5087993;28;20367;-56
2022/08/25 10:57:39;;;;;;;10.18;7.20;;;34.50;99.90;;;;;;5087957;28;20425;-55
2022/08/25 11:00:12;;;;;;;9.20;6.43;;;34.00;99.90;;;;;;5086813;28;20459;-56
2022/08/25 11:02:56;;;;;;;9.93;6.88;;;33.70;99.90;;;;;;5081062;28;20397;-56
2022/08/25 11:05:39;;;;;;;10.90;6.65;;;33.80;99.90;;;;;;5085700;28;20402;-56
2022/08/25 11:08:11;;;;;;;11.00;6.40;;;33.80;99.90;;;;;;5087301;28;20422;-56
2022/08/25 11:11:07;;;;;;;9.90;6.80;;;33.70;99.90;;;;;;5083608;28;20922;-55
2022/08/25 11:13:38;;;;;;;11.20;6.90;;;33.10;99.90;;;;;;5080837;28;20444;-56
2022/08/25 11:16:14;;;;;;;11.35;6.90;;;33.20;99.90;;;;;;5088885;28;20441;-56
2022/08/25 11:18:54;;;;;;;8.80;6.00;;;33.40;99.90;;;;;;5090783;28;20735;-55
2022/08/25 11:21:39;;;;;;;9.73;6.03;;;33.20;99.90;;;;;;5084657;28;20862;-55
2022/08/25 11:24:17;;;;;;;11.30;6.30;;;33.40;99.90;;;;;;5086503;28;20397;-55
2022/08/25 11:26:52;;;;;;;11.27;7.07;;;33.80;99.90;;;;;;5087650;28;20491;-55
2022/08/25 11:29:20;;;;;;;10.65;7.40;;;34.10;99.90;;;;;;5086763;28;20422;-55
2022/08/25 11:31:50;;;;;;;9.73;6.50;;;34.00;99.90;;;;;;5089539;28;20911;-55
2022/08/25 11:34:17;;;;;;;11.90;7.28;;;33.90;99.90;;;;;;5090720;28;20374;-55
2022/08/25 11:37:18;;;;;;;9.32;6.68;;;33.30;99.90;;;;;;5090537;28;20712;-55
2022/08/25 11:40:15;;;;;;;9.05;6.35;;;33.60;99.90;;;;;;5066606;28;20444;-56
2022/08/25 11:42:56;;;;;;;10.18;6.30;;;33.90;99.90;;;;;;5070518;28;20486;-56
2022/08/25 11:45:27;;;;;;;10.10;6.87;;;33.80;99.90;;;;;;5091190;28;20413;-56
2022/08/25 11:47:53;;;;;;;10.18;6.20;;;33.90;99.90;;;;;;5090454;28;20397;-56
2022/08/25 11:50:28;;;;;;;9.27;6.10;;;34.00;99.90;;;;;;5090949;28;20393;-56
2022/08/25 11:52:56;;;;;;;11.40;6.30;;;33.80;99.90;;;;;;5086146;28;20413;-55
2022/08/25 11:55:50;;;;;;;9.27;6.50;;;34.00;99.90;;;;;;5091078;28;20385;-56
2022/08/25 11:58:38;;;;;;;11.00;6.33;;;34.40;99.90;;;;;;5087517;28;20701;-56
2022/08/25 12:01:08;;;;;;;10.55;6.57;;;33.80;99.90;;;;;;5090280;28;20386;-56
2022/08/25 12:03:33;;;;;;;9.15;6.40;;;33.40;99.90;;;;;;5091144;28;20389;-55
2022/08/25 12:06:17;;;;;;;9.73;6.00;;;33.30;99.90;;;;;;5089714;28;20735;-56
2022/08/25 12:08:59;;;;;;;9.40;5.90;;;33.50;99.90;;;;;;5089325;28;20417;-56
2022/08/25 12:11:38;;;;;;;9.30;5.80;;;33.60;99.90;;;;;;5090888;28;20402;-57
2022/08/25 12:14:25;;;;;;;8.90;5.47;;;33.40;99.90;;;;;;5090000;28;20478;-55
2022/08/25 12:16:52;;;;;;;9.57;6.53;;;33.00;99.90;;;;;;5086115;28;20477;-56
2022/08/25 12:19:47;;;;;;;9.30;6.35;;;32.70;99.90;;;;;;5089541;28;20463;-55
2022/08/25 12:22:13;;;;;;;8.60;6.30;;;32.30;99.90;;;;;;5089895;28;20473;-55
2022/08/25 12:24:41;;;;;;;9.33;5.80;;;32.40;99.90;;;;;;5087980;28;20469;-56
2022/08/25 12:27:30;;;;;;;8.48;6.13;;;32.70;99.90;;;;;;5089828;28;20464;-55
2022/08/25 12:29:56;;;;;;;9.50;5.65;;;32.90;99.90;;;;;;5089043;28;20414;-57
2022/08/25 12:32:40;;;;;;;10.87;6.53;;;33.00;99.90;;;;;;5090414;28;20396;-56
2022/08/25 12:35:29;;;;;;;8.23;5.95;;;32.70;99.90;;;;;;5084988;28;20378;-56
2022/08/25 12:38:05;;;;;;;9.00;5.75;;;32.60;99.90;;;;;;5067658;28;20426;-56
2022/08/25 12:40:51;;;;;;;8.35;6.35;;;32.50;99.90;;;;;;5088610;28;20840;-56
2022/08/25 12:43:47;;;;;;;10.38;5.90;;;32.20;99.90;;;;;;5066395;28;20712;-57
2022/08/25 12:46:21;;;;;;;9.75;6.78;;;31.90;99.90;;;;;;5066921;28;20433;-57
2022/08/25 12:49:24;;;;;;;8.50;5.88;;;31.90;99.90;;;;;;5087623;28;20421;-57
2022/08/25 12:51:55;;;;;;;8.70;6.10;;;32.40;99.90;;;;;;5083487;28;20396;-57
2022/08/25 12:54:42;;;;;;;10.32;6.35;;;33.10;99.90;;;;;;5089852;28;20416;-56
2022/08/25 12:57:29;;;;;;;10.20;6.78;;;33.30;99.90;;;;;;5088133;28;20441;-57
2022/08/25 12:59:58;;;;;;;9.90;6.47;;;33.40;99.90;;;;;;5082446;28;20397;-56
2022/08/25 13:02:46;;;;;;;8.57;5.90;;;33.60;99.90;;;;;;5089343;28;20926;-56
2022/08/25 13:05:46;;;;;;;9.13;5.80;;;33.40;99.90;;;;;;5086085;28;20435;-57
2022/08/25 13:08:45;;;;;;;8.55;5.35;;;33.60;99.90;;;;;;5077977;28;20427;-57
2022/08/25 13:11:26;;;;;;;10.23;6.10;;;33.60;99.90;;;;;;5081530;28;20386;-56
2022/08/25 13:14:16;;;;;;;9.48;6.00;;;33.40;99.90;;;;;;5086613;28;20593;-56
2022/08/25 13:16:55;;;;;;;9.02;5.40;;;32.00;99.90;;;;;;5083659;28;20413;-56
2022/08/25 13:19:21;;;;;;;8.60;5.40;;;32.70;99.90;;;;;;5089295;28;20443;-56
2022/08/25 13:21:48;;;;;;;8.40;6.40;;;32.60;99.90;;;;;;5076966;28;20435;-57